Time;durP1;ratioP1;P1;durP2;ratioP2;P2;SDS_P1;SDS_P2;PMS_P1;PMS_P2;Temp;Humidity;BMP_temperature;BMP_pressure;BME280_temperature;BME280_humidity;BME280_pressure;Samples;Min_cycle;Max_cycle;Signal;HPM_P1;HPM_P2
2023/07/31 00:02:01;;;;;;;12.52;10.75;;;538.40;2406.40;;;;;;5072883;28;20031;-60
2023/07/31 00:04:26;;;;;;;15.52;10.77;;;538.40;2406.40;;;;;;5072557;28;20036;-62
2023/07/31 00:06:52;;;;;;;15.00;11.10;;;538.40;2406.40;;;;;;5072857;28;20031;-62
2023/07/31 00:09:17;;;;;;;13.88;11.48;;;538.50;2406.40;;;;;;5072726;28;20461;-61
2023/07/31 00:11:43;;;;;;;16.42;11.90;;;538.40;2406.40;;;;;;5072468;28;20025;-65
2023/07/31 00:14:09;;;;;;;13.00;11.63;;;538.40;2406.40;;;;;;5072745;28;20028;-67
2023/07/31 00:16:35;;;;;;;12.93;11.30;;;538.40;2406.40;;;;;;5072805;28;20024;-61
2023/07/31 00:19:01;;;;;;;13.48;12.07;;;538.30;2406.40;;;;;;5072450;28;20385;-60
2023/07/31 00:21:26;;;;;;;15.02;13.57;;;538.20;2406.40;;;;;;5072707;28;20036;-65
2023/07/31 00:27:14;;;;;;;15.40;12.25;;;538.00;2406.40;;;;;;5074575;28;20040;-61
2023/07/31 00:29:41;;;;;;;21.20;12.27;;;538.00;2252.80;;;;;;5076491;28;20028;-65
2023/07/31 00:32:07;;;;;;;15.38;11.18;;;538.00;2406.40;;;;;;5076684;28;20028;-61
2023/07/31 00:34:32;;;;;;;12.93;11.63;;;538.00;2406.40;;;;;;5076198;28;20029;-61
2023/07/31 00:36:58;;;;;;;11.25;10.07;;;538.00;2406.40;;;;;;5084966;28;20419;-66
2023/07/31 00:39:24;;;;;;;12.35;10.68;;;538.00;2406.40;;;;;;5092452;28;20465;-61
2023/07/31 00:41:49;;;;;;;12.90;11.15;;;538.00;2406.40;;;;;;5092631;28;20020;-64
2023/07/31 00:44:16;;;;;;;14.25;12.40;;;538.00;2406.40;;;;;;5093150;28;20513;-65
2023/07/31 00:46:42;;;;;;;13.07;11.68;;;538.00;2406.40;;;;;;5092429;28;20028;-61
2023/07/31 00:49:08;;;;;;;15.38;11.60;;;537.90;2124.80;;;;;;5091638;28;20073;-61
2023/07/31 00:51:34;;;;;;;13.40;12.02;;;537.90;2406.40;;;;;;5092270;28;20032;-61
2023/07/31 00:54:00;;;;;;;12.82;10.93;;;537.90;2406.40;;;;;;5092133;28;20363;-60
2023/07/31 00:56:27;;;;;;;12.70;10.30;;;537.90;2406.40;;;;;;5092336;28;20521;-61
2023/07/31 00:58:53;;;;;;;11.15;9.70;;;537.90;2150.40;;;;;;5092222;28;20056;-61
2023/07/31 01:01:19;;;;;;;14.45;10.68;;;537.80;2406.40;;;;;;5092245;28;20071;-66
2023/07/31 01:03:45;;;;;;;11.80;10.15;;;537.80;2406.40;;;;;;5091859;28;20449;-62
2023/07/31 01:06:22;;;;;;;11.23;10.10;;;537.80;2329.60;;;;;;5092355;28;20373;-62
2023/07/31 01:08:51;;;;;;;11.48;10.27;;;537.80;2406.40;;;;;;5091603;28;20020;-62
2023/07/31 01:11:24;;;;;;;12.88;10.18;;;537.70;2406.40;;;;;;5091298;28;20031;-62
2023/07/31 01:13:50;;;;;;;10.88;9.68;;;537.80;2329.60;;;;;;5091761;28;20020;-67
2023/07/31 01:16:15;;;;;;;10.80;9.60;;;537.80;2406.40;;;;;;5091977;28;20035;-61
2023/07/31 01:18:41;;;;;;;12.60;10.00;;;537.80;2150.40;;;;;;5091681;28;20474;-61
2023/07/31 01:21:22;;;;;;;14.15;8.73;;;537.80;2176.00;;;;;;5091623;28;20264;-61
2023/07/31 01:24:16;;;;;;;13.82;10.32;;;537.80;2406.40;;;;;;5091410;28;20070;-64
2023/07/31 01:26:46;;;;;;;15.13;10.23;;;537.80;2406.40;;;;;;5078849;28;20055;-61
2023/07/31 01:29:15;;;;;;;14.45;9.25;;;537.90;2406.40;;;;;;5091134;28;20537;-61
2023/07/31 01:31:44;;;;;;;16.25;10.48;;;537.80;2406.40;;;;;;5091744;28;20040;-61
2023/07/31 01:34:11;;;;;;;15.70;9.90;;;537.80;2406.40;;;;;;5091207;28;20051;-68
2023/07/31 01:36:37;;;;;;;11.07;9.93;;;537.80;2406.40;;;;;;5091458;28;20028;-61
2023/07/31 01:39:03;;;;;;;15.95;10.57;;;537.90;2406.40;;;;;;5090994;28;20054;-67
2023/07/31 01:41:29;;;;;;;12.80;9.88;;;537.80;2406.40;;;;;;5090827;28;20040;-61
2023/07/31 01:43:55;;;;;;;11.95;10.50;;;537.80;2406.40;;;;;;5091029;28;20507;-62
2023/07/31 01:46:21;;;;;;;14.13;10.10;;;537.70;2406.40;;;;;;5091438;28;20084;-61
2023/07/31 01:48:46;;;;;;;22.15;11.25;;;537.70;2406.40;;;;;;5091048;28;20107;-62
2023/07/31 01:51:12;;;;;;;10.70;9.63;;;537.70;2406.40;;;;;;5091293;28;20024;-62
2023/07/31 01:53:38;;;;;;;14.10;11.10;;;537.70;2406.40;;;;;;5091074;28;20249;-61
2023/07/31 01:56:03;;;;;;;11.95;10.32;;;537.60;2406.40;;;;;;5091115;28;20428;-62
2023/07/31 01:58:29;;;;;;;11.05;9.10;;;512.90;2048.00;;;;;;5090601;28;20035;-61
2023/07/31 02:00:55;;;;;;;14.18;9.52;;;512.90;2252.80;;;;;;5091183;28;20038;-61
2023/07/31 02:03:21;;;;;;;11.50;8.48;;;537.60;2406.40;;;;;;5090793;28;20388;-62
2023/07/31 02:05:50;;;;;;;11.13;9.20;;;537.60;2406.40;;;;;;5090634;28;20032;-61
2023/07/31 02:08:16;;;;;;;11.48;10.00;;;512.90;2380.80;;;;;;5090875;28;20025;-61
2023/07/31 02:10:42;;;;;;;9.23;8.32;;;512.90;2278.40;;;;;;5090649;28;20031;-62
2023/07/31 02:13:08;;;;;;;11.23;8.95;;;512.90;2380.80;;;;;;5090182;28;20023;-63
2023/07/31 02:15:34;;;;;;;10.63;9.07;;;512.90;2380.80;;;;;;5090809;28;20051;-61
2023/07/31 02:17:59;;;;;;;11.55;9.43;;;512.90;2380.80;;;;;;5090478;28;20111;-61
2023/07/31 02:20:25;;;;;;;10.77;9.70;;;512.90;2380.80;;;;;;5090708;28;20802;-63
2023/07/31 02:22:51;;;;;;;12.13;9.23;;;512.80;2380.80;;;;;;5090373;28;20028;-67
2023/07/31 02:25:17;;;;;;;11.75;9.02;;;512.80;2380.80;;;;;;5090270;28;20024;-63
2023/07/31 02:27:43;;;;;;;9.95;8.85;;;512.80;2380.80;;;;;;5090375;28;20024;-63
2023/07/31 02:30:09;;;;;;;9.90;8.70;;;512.70;2380.80;;;;;;5090504;28;20020;-60
2023/07/31 02:32:35;;;;;;;11.40;8.95;;;512.70;2380.80;;;;;;5090044;28;20501;-60
2023/07/31 02:35:00;;;;;;;12.15;9.02;;;512.70;2380.80;;;;;;5090465;28;20055;-61
2023/07/31 02:37:28;;;;;;;10.48;8.60;;;512.70;2380.80;;;;;;5089947;28;20404;-61
2023/07/31 02:39:54;;;;;;;10.63;8.45;;;512.70;2380.80;;;;;;5089923;28;20056;-61
2023/07/31 02:42:19;;;;;;;11.82;9.00;;;512.70;2380.80;;;;;;5090044;28;20020;-66
2023/07/31 02:44:45;;;;;;;10.15;8.63;;;512.70;2380.80;;;;;;5089988;28;20381;-61
2023/07/31 02:47:11;;;;;;;11.23;8.38;;;512.70;2380.80;;;;;;5089953;28;20030;-62
2023/07/31 02:49:36;;;;;;;9.80;8.27;;;512.70;2380.80;;;;;;5089440;28;20078;-61
2023/07/31 02:52:02;;;;;;;12.20;8.68;;;512.70;2380.80;;;;;;5090101;28;20021;-61
2023/07/31 02:54:28;;;;;;;10.38;9.27;;;512.70;2380.80;;;;;;5090041;28;20379;-61
2023/07/31 02:56:54;;;;;;;11.80;9.35;;;512.70;2380.80;;;;;;5089575;28;20466;-61
2023/07/31 02:59:20;;;;;;;12.27;8.23;;;512.70;2380.80;;;;;;5089920;28;20055;-61
2023/07/31 03:01:46;;;;;;;11.40;8.63;;;512.60;2380.80;;;;;;5089709;28;20542;-62
2023/07/31 03:04:11;;;;;;;13.32;8.15;;;512.60;2380.80;;;;;;5089889;28;20103;-65
2023/07/31 03:06:37;;;;;;;11.13;9.18;;;512.60;2380.80;;;;;;5089503;28;20024;-63
2023/07/31 03:09:03;;;;;;;10.57;7.97;;;512.60;2380.80;;;;;;5089985;28;20024;-61
2023/07/31 03:11:28;;;;;;;10.88;8.98;;;512.70;2380.80;;;;;;5089001;28;20496;-60
2023/07/31 03:13:54;;;;;;;10.02;8.60;;;512.70;2380.80;;;;;;5089445;28;20499;-61
2023/07/31 03:16:20;;;;;;;9.40;8.07;;;512.70;2380.80;;;;;;5089314;28;20139;-60
2023/07/31 03:18:45;;;;;;;8.80;7.68;;;512.70;2380.80;;;;;;5089776;28;20067;-61
2023/07/31 03:21:12;;;;;;;10.70;8.38;;;512.70;2329.60;;;;;;5089349;28;20085;-60
2023/07/31 03:23:38;;;;;;;9.10;8.07;;;512.70;2380.80;;;;;;5089603;28;20051;-68
2023/07/31 03:26:07;;;;;;;8.90;7.70;;;512.80;2278.40;;;;;;5089452;28;20020;-60
2023/07/31 03:28:33;;;;;;;10.50;8.00;;;512.80;2380.80;;;;;;5089529;28;20016;-60
2023/07/31 03:30:59;;;;;;;8.98;7.35;;;512.80;2380.80;;;;;;5088984;28;20733;-61
2023/07/31 03:33:25;;;;;;;11.90;6.90;;;512.90;2124.80;;;;;;5089454;28;20466;-61
2023/07/31 03:35:51;;;;;;;7.47;6.38;;;512.90;2380.80;;;;;;5089332;28;20032;-64
2023/07/31 03:38:17;;;;;;;8.38;6.63;;;537.60;2406.40;;;;;;5089236;28;20052;-65
2023/07/31 03:40:42;;;;;;;10.93;7.05;;;537.60;2406.40;;;;;;5088719;28;20142;-61
2023/07/31 03:43:08;;;;;;;9.07;7.30;;;537.60;2406.40;;;;;;5089157;28;20477;-61
2023/07/31 03:45:34;;;;;;;8.02;6.95;;;537.70;2406.40;;;;;;5088260;28;20032;-61
2023/07/31 03:47:59;;;;;;;9.60;6.53;;;537.80;2406.40;;;;;;5088277;28;20036;-60
2023/07/31 03:50:25;;;;;;;12.43;7.60;;;537.80;2406.40;;;;;;5089323;28;20478;-61
2023/07/31 03:52:51;;;;;;;8.55;7.13;;;537.70;2406.40;;;;;;5088603;28;20024;-61
2023/07/31 03:55:18;;;;;;;11.57;7.25;;;537.80;2406.40;;;;;;5088998;28;20024;-61
2023/07/31 03:57:43;;;;;;;8.95;7.68;;;537.90;2406.40;;;;;;5089249;28;20028;-61
2023/07/31 04:00:10;;;;;;;8.80;7.28;;;537.90;2406.40;;;;;;5089026;28;20031;-62
2023/07/31 04:02:35;;;;;;;10.18;7.55;;;538.00;2406.40;;;;;;5091747;28;20031;-60
2023/07/31 04:05:01;;;;;;;10.00;7.25;;;538.20;2406.40;;;;;;5093164;28;20580;-65
2023/07/31 04:07:27;;;;;;;10.02;7.60;;;538.20;2406.40;;;;;;5093117;28;20093;-61
2023/07/31 04:09:52;;;;;;;8.98;7.60;;;538.30;2406.40;;;;;;5092871;28;20390;-60
2023/07/31 04:12:18;;;;;;;9.80;7.13;;;538.40;2406.40;;;;;;5093098;28;20419;-61
2023/07/31 04:14:44;;;;;;;11.05;7.25;;;538.50;2406.40;;;;;;5093258;28;20491;-61
2023/07/31 04:17:09;;;;;;;10.57;7.25;;;538.50;2406.40;;;;;;5092721;28;20027;-60
2023/07/31 04:19:35;;;;;;;8.90;7.03;;;538.50;2406.40;;;;;;5092670;28;20053;-60
2023/07/31 04:22:01;;;;;;;7.93;6.75;;;563.20;2432.00;;;;;;5093035;28;20448;-61
2023/07/31 04:24:26;;;;;;;8.40;7.50;;;563.20;2432.00;;;;;;5092514;28;20016;-61
2023/07/31 04:26:53;;;;;;;9.23;7.47;;;563.20;2432.00;;;;;;5092756;28;20423;-62
2023/07/31 04:29:19;;;;;;;10.80;8.82;;;563.20;2432.00;;;;;;5092581;28;20016;-61
2023/07/31 04:31:45;;;;;;;8.60;7.80;;;563.30;2432.00;;;;;;5092637;28;20016;-61
2023/07/31 04:34:11;;;;;;;9.40;8.35;;;563.30;2432.00;;;;;;5092380;28;20038;-63
2023/07/31 04:36:37;;;;;;;9.85;7.90;;;563.30;2432.00;;;;;;5092719;28;20072;-61
2023/07/31 04:39:03;;;;;;;9.07;8.18;;;563.30;2432.00;;;;;;5092321;28;20736;-64
2023/07/31 04:41:29;;;;;;;8.70;7.70;;;563.30;2432.00;;;;;;5091896;28;20612;-61
2023/07/31 04:43:54;;;;;;;9.57;7.78;;;563.40;2432.00;;;;;;5092526;28;20127;-66
2023/07/31 04:46:20;;;;;;;10.35;7.68;;;563.50;2432.00;;;;;;5092966;28;20021;-63
2023/07/31 04:48:45;;;;;;;9.02;8.00;;;563.60;2432.00;;;;;;5092212;28;20046;-62
2023/07/31 04:51:11;;;;;;;9.65;8.65;;;563.60;2432.00;;;;;;5092216;28;20020;-62
2023/07/31 04:53:37;;;;;;;9.38;8.18;;;563.60;2432.00;;;;;;5092107;28;20449;-61
2023/07/31 04:56:03;;;;;;;11.07;7.68;;;563.80;2432.00;;;;;;5091995;28;20035;-63
2023/07/31 04:58:29;;;;;;;10.93;8.48;;;588.90;2432.00;;;;;;5092124;28;20024;-68
2023/07/31 05:00:54;;;;;;;9.18;7.75;;;691.30;2432.00;;;;;;5091745;28;20115;-61
2023/07/31 05:03:20;;;;;;;8.32;7.53;;;768.00;2432.00;;;;;;5090768;28;20107;-61
2023/07/31 05:05:46;;;;;;;9.73;7.10;;;819.40;2176.00;;;;;;5091748;28;20039;-61
2023/07/31 05:08:11;;;;;;;7.43;6.40;;;845.70;1996.80;;;;;;5092017;28;20024;-62
2023/07/31 05:10:37;;;;;;;7.47;6.75;;;871.30;1868.80;;;;;;5090898;28;20028;-61
2023/07/31 05:13:03;;;;;;;7.35;6.43;;;896.90;1792.00;;;;;;5091290;28;20069;-66
2023/07/31 05:15:29;;;;;;;6.65;6.00;;;922.20;1715.20;;;;;;5091867;28;20027;-67
2023/07/31 05:17:55;;;;;;;6.72;5.93;;;922.30;1715.20;;;;;;5091834;28;20043;-62
2023/07/31 05:20:21;;;;;;;10.13;6.50;;;845.20;1920.00;;;;;;5091509;28;20061;-68
2023/07/31 05:22:47;;;;;;;7.35;6.45;;;768.60;2048.00;;;;;;5091619;28;20028;-62
2023/07/31 05:25:12;;;;;;;7.90;6.18;;;742.70;2201.60;;;;;;5091173;28;20474;-62
2023/07/31 05:27:38;;;;;;;8.55;6.40;;;717.00;2304.00;;;;;;5091777;28;20032;-61
2023/07/31 05:30:05;;;;;;;7.10;6.40;;;691.50;2380.80;;;;;;5091358;28;20466;-61
2023/07/31 05:32:31;;;;;;;6.85;6.15;;;666.00;2432.00;;;;;;5091759;28;20099;-61
2023/07/31 05:34:56;;;;;;;9.68;6.63;;;640.90;2432.00;;;;;;5091052;28;20480;-62
2023/07/31 05:37:22;;;;;;;9.60;6.68;;;640.50;2432.00;;;;;;5091521;28;20016;-61
2023/07/31 05:39:48;;;;;;;7.82;7.03;;;640.20;2432.00;;;;;;5090732;28;20093;-61
2023/07/31 05:42:14;;;;;;;8.10;7.20;;;640.30;2432.00;;;;;;5091320;28;20034;-62
2023/07/31 05:44:40;;;;;;;8.93;7.10;;;640.60;2432.00;;;;;;5090906;28;20032;-61
2023/07/31 05:47:05;;;;;;;10.00;5.80;;;640.50;2432.00;;;;;;5091495;28;20032;-63
2023/07/31 05:49:31;;;;;;;6.68;6.07;;;640.50;2432.00;;;;;;5090954;28;20036;-61
2023/07/31 05:51:57;;;;;;;11.20;7.43;;;640.40;2432.00;;;;;;5091035;28;20056;-61
2023/07/31 05:54:22;;;;;;;8.13;6.68;;;640.50;2432.00;;;;;;5091004;28;20396;-64
2023/07/31 05:56:48;;;;;;;9.77;6.25;;;665.70;2432.00;;;;;;5091101;28;20381;-61
2023/07/31 05:59:14;;;;;;;6.88;5.78;;;665.90;2432.00;;;;;;5090831;28;20035;-61
2023/07/31 06:01:39;;;;;;;10.02;7.45;;;665.90;2432.00;;;;;;5090911;28;20085;-65
2023/07/31 06:04:05;;;;;;;8.40;7.60;;;717.60;2432.00;;;;;;5090802;28;20160;-62
2023/07/31 06:06:31;;;;;;;10.10;7.55;;;845.30;2099.20;;;;;;5091096;28;20455;-66
2023/07/31 06:08:57;;;;;;;11.25;7.00;;;921.80;1843.20;;;;;;5077174;28;20020;-62
2023/07/31 06:11:23;;;;;;;8.55;7.75;;;973.40;1638.40;;;;;;5075929;28;20470;-64
2023/07/31 06:13:49;;;;;;;7.38;6.57;;;999.30;1561.60;;;;;;5090723;28;20027;-68
2023/07/31 06:16:16;;;;;;;6.93;6.22;;;1024.70;1484.80;;;;;;5090538;28;20473;-64
2023/07/31 06:18:42;;;;;;;7.25;6.65;;;1050.20;1433.60;;;;;;5090582;28;20043;-63
2023/07/31 06:21:09;;;;;;;8.68;7.85;;;1075.40;1408.00;;;;;;5079927;28;20414;-61
2023/07/31 06:23:35;;;;;;;8.45;7.75;;;1075.50;1382.40;;;;;;5087059;28;20112;-69
2023/07/31 06:26:01;;;;;;;7.88;7.13;;;1075.80;1356.80;;;;;;5089679;28;20442;-70
2023/07/31 06:28:31;;;;;;;7.28;6.57;;;1076.10;1331.20;;;;;;5090140;28;20637;-63
2023/07/31 06:31:00;;;;;;;7.85;7.25;;;1101.00;1356.80;;;;;;5090395;28;20362;-62
2023/07/31 06:33:27;;;;;;;7.72;6.97;;;1101.00;1331.20;;;;;;5089974;28;20016;-67
2023/07/31 06:35:52;;;;;;;7.82;7.18;;;1101.10;1305.60;;;;;;5090302;28;20516;-69
2023/07/31 06:38:23;;;;;;;8.32;7.60;;;1101.60;1280.00;;;;;;5090496;28;20016;-62
2023/07/31 06:40:49;;;;;;;8.43;7.70;;;1101.60;1305.60;;;;;;5089600;28;20060;-62
2023/07/31 06:43:15;;;;;;;8.85;8.25;;;1127.00;1254.40;;;;;;5089945;28;20039;-62
2023/07/31 06:45:40;;;;;;;6.85;6.10;;;1126.90;1254.40;;;;;;5090198;28;20073;-61
2023/07/31 06:48:06;;;;;;;8.00;7.35;;;1050.50;1356.80;;;;;;5089909;28;20020;-61
2023/07/31 06:50:32;;;;;;;8.85;8.30;;;1075.80;1305.60;;;;;;5090305;28;20086;-64
2023/07/31 06:52:58;;;;;;;7.03;5.22;;;1126.40;1280.00;;;;;;5089783;28;20024;-61
2023/07/31 06:55:25;;;;;;;5.32;4.80;;;999.00;1408.00;;;;;;5089866;28;20024;-62
2023/07/31 06:57:53;;;;;;;6.88;5.30;;;948.00;1484.80;;;;;;5089663;28;20423;-62
2023/07/31 07:00:20;;;;;;;6.13;4.85;;;896.00;1587.20;;;;;;5089792;28;20044;-60
2023/07/31 07:02:48;;;;;;;6.70;6.10;;;845.40;1715.20;;;;;;5089797;28;20024;-62
2023/07/31 07:05:15;;;;;;;5.95;5.10;;;871.10;1638.40;;;;;;5090036;28;20382;-67
2023/07/31 07:07:41;;;;;;;6.10;5.40;;;921.90;1587.20;;;;;;5089564;28;20024;-61
2023/07/31 07:10:07;;;;;;;5.20;4.70;;;896.80;1587.20;;;;;;5088926;28;20062;-61
2023/07/31 07:12:33;;;;;;;5.65;5.15;;;896.30;1612.80;;;;;;5089624;28;20024;-61
2023/07/31 07:14:59;;;;;;;5.03;4.30;;;922.40;1561.60;;;;;;5089201;28;20027;-61
2023/07/31 07:17:26;;;;;;;5.65;4.18;;;871.00;1638.40;;;;;;5089935;28;20094;-62
2023/07/31 07:19:52;;;;;;;5.25;4.75;;;870.50;1664.00;;;;;;5089114;28;20107;-66
2023/07/31 07:22:18;;;;;;;4.85;4.30;;;870.50;1664.00;;;;;;5089678;28;20124;-61
2023/07/31 07:24:44;;;;;;;5.35;4.63;;;845.70;1664.00;;;;;;5089403;28;20098;-61
2023/07/31 07:27:09;;;;;;;6.03;4.45;;;845.50;1715.20;;;;;;5089449;28;20112;-61
2023/07/31 07:29:35;;;;;;;6.78;4.30;;;845.40;1715.20;;;;;;5089331;28;20073;-65
2023/07/31 07:32:01;;;;;;;9.98;4.25;;;819.80;1766.40;;;;;;5089217;28;20473;-61
2023/07/31 07:34:27;;;;;;;5.10;4.60;;;794.20;1868.80;;;;;;5088857;28;20031;-62
2023/07/31 07:36:54;;;;;;;5.68;5.15;;;819.70;1817.60;;;;;;5089072;28;20393;-62
2023/07/31 07:39:20;;;;;;;5.13;4.63;;;845.70;1715.20;;;;;;5088836;28;20024;-68
2023/07/31 07:41:46;;;;;;;6.45;4.97;;;896.20;1638.40;;;;;;5089229;28;20393;-62
2023/07/31 07:44:12;;;;;;;5.15;4.65;;;922.00;1638.40;;;;;;5089188;28;20069;-61
2023/07/31 07:46:38;;;;;;;6.45;4.72;;;922.00;1612.80;;;;;;5089233;28;20482;-62
2023/07/31 07:49:04;;;;;;;4.97;4.43;;;896.80;1612.80;;;;;;5089086;28;20055;-62
2023/07/31 07:51:31;;;;;;;5.40;4.55;;;845.50;1766.40;;;;;;5089357;28;20115;-67
2023/07/31 07:54:00;;;;;;;6.18;4.70;;;819.30;1843.20;;;;;;5089093;28;20141;-61
2023/07/31 07:56:26;;;;;;;4.82;4.18;;;794.00;1894.40;;;;;;5089127;28;20462;-67
2023/07/31 07:58:53;;;;;;;6.47;4.90;;;768.50;1920.00;;;;;;5089070;28;20060;-62
2023/07/31 08:01:19;;;;;;;6.20;4.60;;;768.00;1945.60;;;;;;5089059;28;20490;-61
2023/07/31 08:03:44;;;;;;;6.40;4.90;;;768.50;1920.00;;;;;;5089239;28;20077;-63
2023/07/31 08:06:10;;;;;;;7.32;4.53;;;768.80;1894.40;;;;;;5089184;28;20548;-63
2023/07/31 08:08:36;;;;;;;35.55;8.68;;;768.90;1894.40;;;;;;5089011;28;20466;-61
2023/07/31 08:11:02;;;;;;;5.20;4.05;;;794.10;1894.40;;;;;;5088819;28;20123;-65
2023/07/31 08:13:28;;;;;;;5.00;4.05;;;794.20;1868.80;;;;;;5088542;28;20024;-61
2023/07/31 08:15:54;;;;;;;4.90;4.40;;;768.80;1894.40;;;;;;5089236;28;20024;-61
2023/07/31 08:18:20;;;;;;;5.30;4.30;;;768.10;1945.60;;;;;;5088929;28;20020;-63
2023/07/31 08:20:45;;;;;;;5.90;4.40;;;743.00;1996.80;;;;;;5088383;28;20078;-67
2023/07/31 08:23:14;;;;;;;5.43;4.15;;;743.10;1996.80;;;;;;5076408;28;20052;-68
2023/07/31 08:25:40;;;;;;;5.70;4.60;;;768.70;1945.60;;;;;;5075678;28;20028;-63
2023/07/31 08:28:06;;;;;;;4.95;4.07;;;794.50;1868.80;;;;;;5078521;28;20526;-63
2023/07/31 08:30:36;;;;;;;7.20;4.78;;;819.40;1817.60;;;;;;5089199;28;20044;-67
2023/07/31 08:33:02;;;;;;;6.40;4.60;;;819.40;1843.20;;;;;;5088165;28;20040;-62
2023/07/31 08:35:28;;;;;;;5.97;4.60;;;794.20;1868.80;;;;;;5088588;28;20044;-62
2023/07/31 08:37:54;;;;;;;7.35;5.35;;;794.00;1920.00;;;;;;5072018;28;20470;-62
2023/07/31 08:40:21;;;;;;;5.95;4.80;;;794.00;1920.00;;;;;;5069109;28;20445;-62
2023/07/31 08:42:49;;;;;;;6.65;4.63;;;794.00;1920.00;;;;;;5084300;28;20089;-61
2023/07/31 08:45:17;;;;;;;6.80;5.05;;;819.50;1868.80;;;;;;5083677;28;20025;-69
2023/07/31 08:47:51;;;;;;;5.03;4.53;;;819.50;1817.60;;;;;;5071894;28;20040;-65
2023/07/31 08:50:19;;;;;;;6.63;5.20;;;794.40;1843.20;;;;;;5077577;28;20074;-67
2023/07/31 08:52:50;;;;;;;5.00;4.50;;;793.90;1894.40;;;;;;5082773;28;20020;-67
2023/07/31 08:55:17;;;;;;;4.95;4.25;;;793.70;1920.00;;;;;;5072912;28;20463;-63
2023/07/31 08:57:43;;;;;;;5.22;4.13;;;793.70;1894.40;;;;;;5092948;28;20504;-65
2023/07/31 09:00:10;;;;;;;15.13;6.13;;;793.80;1894.40;;;;;;5092151;28;20028;-67
2023/07/31 09:02:46;;;;;;;4.40;4.00;;;793.70;1920.00;;;;;;5083126;28;20675;-60
2023/07/31 09:05:12;;;;;;;4.93;4.43;;;793.90;1945.60;;;;;;5090217;28;20120;-60
2023/07/31 09:07:39;;;;;;;5.30;4.53;;;819.20;1843.20;;;;;;5092147;28;20103;-61
2023/07/31 09:10:05;;;;;;;5.63;3.83;;;819.30;1843.20;;;;;;5091729;28;20031;-61
2023/07/31 09:12:31;;;;;;;4.20;3.80;;;819.30;1843.20;;;;;;5091957;28;20032;-66
2023/07/31 09:14:58;;;;;;;5.10;3.67;;;819.50;1817.60;;;;;;5091453;28;20023;-61
2023/07/31 09:17:34;;;;;;;10.77;4.45;;;819.80;1817.60;;;;;;5091640;28;20698;-63
2023/07/31 09:20:20;;;;;;;4.30;3.70;;;819.20;1817.60;;;;;;5091759;28;20095;-61
2023/07/31 09:22:48;;;;;;;6.25;3.75;;;819.30;1843.20;;;;;;5080471;28;20027;-62
2023/07/31 09:25:36;;;;;;;5.07;4.10;;;794.50;1843.20;;;;;;5083269;28;20059;-61
2023/07/31 09:28:05;;;;;;;5.95;3.85;;;794.20;1868.80;;;;;;5091716;28;20040;-63
2023/07/31 09:30:41;;;;;;;5.85;4.15;;;794.30;1868.80;;;;;;5091615;28;20024;-60
2023/07/31 09:33:09;;;;;;;4.78;3.90;;;794.00;1894.40;;;;;;5091584;28;20020;-60
2023/07/31 09:35:37;;;;;;;5.32;3.97;;;793.60;1920.00;;;;;;5092258;28;20067;-68
2023/07/31 09:38:06;;;;;;;4.05;3.60;;;793.80;1894.40;;;;;;5091880;28;20028;-62
2023/07/31 09:40:33;;;;;;;7.03;3.83;;;793.70;1894.40;;;;;;5090630;28;20469;-66
2023/07/31 09:43:01;;;;;;;6.72;3.70;;;768.90;1868.80;;;;;;5091216;28;20030;-65
2023/07/31 09:45:27;;;;;;;4.63;3.95;;;768.60;1868.80;;;;;;5091057;28;20403;-65
2023/07/31 09:47:54;;;;;;;5.38;3.78;;;768.60;1843.20;;;;;;5091438;28;20028;-61
2023/07/31 09:50:24;;;;;;;5.82;3.78;;;768.70;1817.60;;;;;;5091753;28;20434;-63
2023/07/31 09:52:50;;;;;;;5.07;3.90;;;768.70;1817.60;;;;;;5090969;28;20032;-61
2023/07/31 09:55:16;;;;;;;4.45;3.13;;;768.70;1843.20;;;;;;5090588;28;20089;-62
2023/07/31 09:57:45;;;;;;;5.18;3.92;;;768.10;1894.40;;;;;;5076638;28;20482;-61
2023/07/31 10:00:12;;;;;;;5.32;4.13;;;768.40;1843.20;;;;;;5090921;28;20489;-61
2023/07/31 10:02:39;;;;;;;4.20;3.63;;;768.40;1843.20;;;;;;5090586;28;20028;-61
2023/07/31 10:05:06;;;;;;;4.97;3.65;;;768.30;1843.20;;;;;;5091112;28;20024;-60
2023/07/31 10:07:40;;;;;;;4.93;3.38;;;768.40;1817.60;;;;;;5090982;28;20031;-60
2023/07/31 10:10:09;;;;;;;5.93;3.78;;;768.60;1792.00;;;;;;5090265;28;20032;-62
2023/07/31 10:12:36;;;;;;;4.97;3.63;;;768.90;1792.00;;;;;;5090847;28;20072;-61
2023/07/31 10:15:03;;;;;;;4.53;3.15;;;793.70;1792.00;;;;;;5090951;28;20024;-61
2023/07/31 10:17:31;;;;;;;7.65;3.47;;;793.80;1740.80;;;;;;5090468;28;20478;-68
2023/07/31 10:20:01;;;;;;;3.58;3.15;;;793.70;1766.40;;;;;;5090273;28;20023;-63
2023/07/31 10:22:27;;;;;;;3.83;3.42;;;768.60;1766.40;;;;;;5090336;28;20086;-63
2023/07/31 10:24:54;;;;;;;4.43;3.58;;;768.20;1817.60;;;;;;5090833;28;20016;-63
2023/07/31 10:27:20;;;;;;;4.43;3.30;;;743.00;1792.00;;;;;;5090167;28;20042;-63
2023/07/31 10:29:48;;;;;;;7.32;4.43;;;743.20;1766.40;;;;;;5081352;28;20021;-64
2023/07/31 10:32:15;;;;;;;4.38;3.75;;;743.30;1792.00;;;;;;5069828;28;20039;-63
2023/07/31 10:34:41;;;;;;;9.43;7.25;;;743.10;1817.60;;;;;;5084435;28;20085;-59
2023/07/31 10:37:28;;;;;;;5.78;3.45;;;743.00;1843.20;;;;;;5090215;28;20020;-67
2023/07/31 10:39:58;;;;;;;4.80;3.70;;;743.10;1817.60;;;;;;5089825;28;20539;-66
2023/07/31 10:42:47;;;;;;;4.95;3.47;;;743.30;1792.00;;;;;;5090225;28;20486;-65
2023/07/31 10:45:13;;;;;;;3.65;2.90;;;743.30;1766.40;;;;;;5090381;28;20077;-64
2023/07/31 10:47:46;;;;;;;5.00;3.35;;;743.20;1715.20;;;;;;5089821;28;20028;-67
2023/07/31 10:50:18;;;;;;;6.30;3.45;;;742.90;1689.60;;;;;;5090112;28;20523;-66
2023/07/31 10:52:49;;;;;;;7.13;3.33;;;742.70;1689.60;;;;;;5089893;28;20024;-65
2023/07/31 10:55:29;;;;;;;4.28;3.35;;;742.80;1766.40;;;;;;5089875;28;20035;-65
2023/07/31 10:57:57;;;;;;;4.60;3.10;;;742.50;1792.00;;;;;;5089563;28;20024;-63
2023/07/31 11:00:27;;;;;;;5.68;3.22;;;717.70;1715.20;;;;;;5089788;28;20028;-65
2023/07/31 11:03:03;;;;;;;5.95;3.55;;;717.60;1740.80;;;;;;5089751;28;20062;-65
2023/07/31 11:06:02;;;;;;;4.47;3.53;;;717.70;1766.40;;;;;;5089214;28;20047;-67
2023/07/31 11:08:35;;;;;;;5.30;3.25;;;742.50;1766.40;;;;;;5089649;28;20016;-66
2023/07/31 11:11:10;;;;;;;4.40;3.13;;;742.60;1766.40;;;;;;5088765;28;20032;-67
2023/07/31 11:13:40;;;;;;;9.90;3.45;;;742.60;1766.40;;;;;;5089454;28;20401;-66
2023/07/31 11:16:07;;;;;;;4.78;2.95;;;742.60;1766.40;;;;;;5089778;28;20020;-67
2023/07/31 11:18:32;;;;;;;5.00;3.85;;;742.70;1740.80;;;;;;5089892;28;20032;-66
2023/07/31 11:20:58;;;;;;;6.53;3.53;;;742.80;1740.80;;;;;;5089419;28;20028;-65
2023/07/31 11:23:24;;;;;;;5.80;3.67;;;742.90;1817.60;;;;;;5089696;28;20073;-66
2023/07/31 11:25:50;;;;;;;8.95;3.47;;;742.90;1792.00;;;;;;5089498;28;20518;-65
2023/07/31 11:28:17;;;;;;;6.13;3.58;;;742.80;1766.40;;;;;;5089341;28;20715;-65
2023/07/31 11:30:44;;;;;;;4.30;3.15;;;717.60;1689.60;;;;;;5089451;28;20028;-66
2023/07/31 11:33:12;;;;;;;5.70;3.42;;;717.40;1715.20;;;;;;5089073;28;20097;-66
2023/07/31 11:35:46;;;;;;;3.92;3.08;;;717.50;1689.60;;;;;;5089107;28;20030;-66
2023/07/31 11:38:33;;;;;;;7.68;3.78;;;742.50;1792.00;;;;;;5089172;28;20020;-65
2023/07/31 11:41:02;;;;;;;6.63;3.80;;;742.60;1766.40;;;;;;5088395;28;20048;-63
2023/07/31 11:43:28;;;;;;;5.00;3.35;;;742.80;1740.80;;;;;;5088992;28;20378;-65
2023/07/31 11:45:58;;;;;;;4.75;4.00;;;742.90;1792.00;;;;;;5089452;28;20485;-66
2023/07/31 11:48:33;;;;;;;6.53;3.42;;;743.00;1766.40;;;;;;5089114;28;20020;-68
2023/07/31 11:51:00;;;;;;;4.55;3.67;;;743.00;1740.80;;;;;;5089310;28;20036;-67
2023/07/31 11:53:34;;;;;;;7.22;3.60;;;743.10;1715.20;;;;;;5088960;28;20072;-66
2023/07/31 11:56:04;;;;;;;5.95;3.65;;;743.00;1664.00;;;;;;5088970;28;20016;-66
2023/07/31 11:58:31;;;;;;;3.53;3.10;;;743.30;1792.00;;;;;;5088721;28;20020;-65
2023/07/31 12:00:58;;;;;;;5.32;3.47;;;743.10;1612.80;;;;;;5088744;28;20033;-66
2023/07/31 12:03:23;;;;;;;5.03;3.60;;;743.30;1715.20;;;;;;5088835;28;20109;-66
2023/07/31 12:05:49;;;;;;;4.20;3.20;;;768.10;1612.80;;;;;;5089009;28;20021;-66
2023/07/31 12:08:16;;;;;;;5.40;3.28;;;768.00;1612.80;;;;;;5088959;28;20107;-65
2023/07/31 12:10:42;;;;;;;3.70;3.15;;;768.10;1638.40;;;;;;5088686;28;20028;-65
2023/07/31 12:13:15;;;;;;;6.22;3.40;;;743.30;1664.00;;;;;;5088684;28;20020;-65
2023/07/31 12:15:43;;;;;;;8.73;3.70;;;743.10;1689.60;;;;;;5089219;28;20437;-65
2023/07/31 12:18:14;;;;;;;5.53;3.58;;;743.10;1689.60;;;;;;5088543;28;20103;-65